createdAt,value
2018-07-11T00:00:00.905Z,91
2018-07-11T00:05:00.894Z,91
2018-07-11T00:10:01.324Z,91
2018-07-11T00:15:01.027Z,92
2018-07-11T00:20:00.913Z,92
2018-07-11T00:25:01.607Z,92
2018-07-11T00:30:01.225Z,92
2018-07-11T00:35:01.206Z,92
2018-07-11T00:40:01.029Z,92
2018-07-11T00:45:01.720Z,92
2018-07-11T00:50:01.360Z,92
2018-07-11T00:55:01.125Z,92
2018-07-11T01:00:01.421Z,92
2018-07-11T01:05:01.215Z,92
2018-07-11T01:10:01.686Z,92
2018-07-11T01:15:01.473Z,93
2018-07-11T01:20:01.338Z,93
2018-07-11T01:25:01.049Z,93
2018-07-11T01:30:06.844Z,93
2018-07-11T01:35:01.022Z,93
2018-07-11T01:40:01.673Z,93
2018-07-11T01:45:01.294Z,93
2018-07-11T01:50:00.935Z,93
2018-07-11T01:55:01.879Z,93
2018-07-11T02:00:01.589Z,93
2018-07-11T02:05:06.799Z,93
2018-07-11T02:10:01.598Z,93
2018-07-11T02:15:01.280Z,94
2018-07-11T02:20:01.041Z,94
2018-07-11T02:25:01.657Z,94
2018-07-11T02:30:01.396Z,94
2018-07-11T02:35:01.118Z,94
2018-07-11T02:40:01.892Z,94
2018-07-11T02:45:01.548Z,94
2018-07-11T02:50:01.291Z,94
2018-07-11T02:55:01.186Z,94
2018-07-11T03:00:01.908Z,94
2018-07-11T03:05:01.670Z,95
2018-07-11T03:10:01.472Z,95
2018-07-11T03:15:01.406Z,95
2018-07-11T03:20:01.152Z,95
2018-07-11T03:25:01.810Z,95
2018-07-11T03:30:01.493Z,95
2018-07-11T03:35:01.473Z,95
2018-07-11T03:40:01.128Z,95
2018-07-11T03:45:02.004Z,96
2018-07-11T03:50:06.774Z,96
2018-07-11T03:55:01.497Z,96
2018-07-11T04:00:01.143Z,96
2018-07-11T04:05:02.082Z,96
2018-07-11T04:10:01.006Z,96
2018-07-11T04:15:01.890Z,96
2018-07-11T04:20:01.882Z,96
2018-07-11T04:25:01.788Z,96
2018-07-11T04:30:02.168Z,96
2018-07-11T04:35:01.652Z,96
2018-07-11T04:40:01.609Z,96
2018-07-11T04:45:01.288Z,96
2018-07-11T04:50:02.009Z,96
2018-07-11T04:55:01.659Z,97
2018-07-11T05:00:01.453Z,97
2018-07-11T05:05:01.940Z,97
2018-07-11T05:10:01.654Z,97
2018-07-11T05:15:01.311Z,97
2018-07-11T05:20:02.160Z,97
2018-07-11T05:25:01.829Z,97
2018-07-11T05:30:01.531Z,97
2018-07-11T05:35:01.278Z,97
2018-07-11T05:40:01.971Z,97
2018-07-11T05:45:01.612Z,97
2018-07-11T05:50:01.351Z,97
2018-07-11T05:55:02.046Z,97
2018-07-11T06:00:01.931Z,97
2018-07-11T06:05:02.224Z,97
2018-07-11T06:10:01.580Z,97
2018-07-11T06:15:01.926Z,97
2018-07-11T06:20:02.174Z,97
2018-07-11T06:25:01.915Z,98
2018-07-11T06:30:01.549Z,98
2018-07-11T06:35:01.684Z,98
2018-07-11T06:40:01.504Z,98
2018-07-11T06:45:02.189Z,98
2018-07-11T06:50:02.108Z,98
2018-07-11T06:55:01.261Z,98
2018-07-11T07:00:02.416Z,98
2018-07-11T07:05:01.331Z,98
2018-07-11T07:10:01.756Z,98
2018-07-11T07:15:01.571Z,98
2018-07-11T07:20:01.497Z,98
2018-07-11T07:25:01.244Z,98
2018-07-11T07:30:02.105Z,98
2018-07-11T07:35:01.823Z,98
2018-07-11T07:40:01.695Z,98
2018-07-11T07:45:01.504Z,98
2018-07-11T07:50:01.453Z,98
2018-07-11T07:55:06.980Z,98
2018-07-11T08:00:01.678Z,98
2018-07-11T08:05:01.923Z,98
2018-07-11T08:10:01.809Z,98
2018-07-11T08:15:01.666Z,98
2018-07-11T08:20:01.417Z,98
2018-07-11T08:25:02.193Z,98
2018-07-11T08:30:06.483Z,98
2018-07-11T08:35:01.539Z,98
2018-07-11T08:40:01.365Z,98
2018-07-11T08:45:02.352Z,99
2018-07-11T08:50:02.150Z,99
2018-07-11T08:55:02.065Z,98
2018-07-11T09:00:01.980Z,98
2018-07-11T09:05:02.056Z,98
2018-07-11T09:10:01.408Z,98
2018-07-11T09:15:02.215Z,98
2018-07-11T09:20:02.448Z,98
2018-07-11T09:25:02.553Z,98
2018-07-11T09:30:02.501Z,98
2018-07-11T09:35:01.573Z,98
2018-07-11T09:40:01.500Z,98
2018-07-11T09:45:02.456Z,98
2018-07-11T09:50:02.370Z,98
2018-07-11T09:55:02.173Z,99
2018-07-11T10:00:02.272Z,99
2018-07-11T10:05:02.388Z,99
2018-07-11T10:10:01.697Z,99
2018-07-11T10:15:01.554Z,99
2018-07-11T10:20:01.549Z,99
2018-07-11T10:25:02.345Z,97
2018-07-11T10:30:02.117Z,97
2018-07-11T10:35:01.944Z,96
2018-07-11T10:40:01.977Z,96
2018-07-11T10:45:01.983Z,95
2018-07-11T10:50:02.043Z,95
2018-07-11T10:55:01.803Z,93
2018-07-11T11:00:01.611Z,93
2018-07-11T11:05:02.628Z,93
2018-07-11T11:10:01.768Z,93
2018-07-11T11:15:02.449Z,92
2018-07-11T11:20:02.174Z,92
2018-07-11T11:25:07.020Z,93
2018-07-11T11:30:01.669Z,93
2018-07-11T11:35:02.597Z,93
2018-07-11T11:40:02.399Z,93
2018-07-11T11:45:02.486Z,91
2018-07-11T11:50:01.574Z,91
2018-07-11T11:55:02.290Z,90
2018-07-11T12:00:02.486Z,90
2018-07-11T12:05:02.215Z,91
2018-07-11T12:10:02.263Z,91
2018-07-11T12:15:02.027Z,92
2018-07-11T12:20:01.884Z,92
2018-07-11T12:25:01.836Z,92
2018-07-11T12:30:02.619Z,92
2018-07-11T12:35:02.246Z,93
2018-07-11T12:40:02.186Z,93
2018-07-11T12:45:01.895Z,94
2018-07-11T12:50:02.718Z,94
2018-07-11T12:55:01.790Z,95
2018-07-11T13:00:02.730Z,95
2018-07-11T13:05:01.936Z,95
2018-07-11T13:10:02.218Z,95
2018-07-11T13:15:12.160Z,95
2018-07-11T13:20:01.897Z,95
2018-07-11T13:25:02.663Z,96
2018-07-11T13:30:02.735Z,96
2018-07-11T13:35:01.956Z,96
2018-07-11T13:40:01.763Z,96
2018-07-11T13:45:02.563Z,96
2018-07-11T13:50:02.331Z,96
2018-07-11T13:55:02.427Z,96
2018-07-11T14:00:02.246Z,96
2018-07-11T14:05:02.787Z,96
2018-07-11T14:10:01.940Z,96
2018-07-11T14:15:02.824Z,96
2018-07-11T14:20:02.835Z,96
2018-07-11T14:25:02.609Z,96
2018-07-11T14:30:02.282Z,96
2018-07-11T14:35:02.277Z,96
2018-07-11T14:40:02.271Z,96
2018-07-11T14:45:02.003Z,96
2018-07-11T14:50:01.839Z,96
2018-07-11T14:55:02.015Z,96
2018-07-11T15:00:03.156Z,96
2018-07-11T15:05:02.424Z,96
2018-07-11T15:10:01.773Z,96
2018-07-11T15:15:02.582Z,96
2018-07-11T15:20:02.534Z,96
2018-07-11T15:25:02.713Z,96
2018-07-11T15:30:02.262Z,96
2018-07-11T15:35:02.048Z,96
2018-07-11T15:40:01.921Z,96
2018-07-11T15:45:02.789Z,96
2018-07-11T15:50:02.665Z,96
2018-07-11T15:55:02.361Z,96
2018-07-11T16:00:02.489Z,96
2018-07-11T16:05:02.586Z,96
2018-07-11T16:10:02.339Z,96
2018-07-11T16:15:02.432Z,97
2018-07-11T16:20:02.637Z,97
2018-07-11T16:25:02.294Z,97
2018-07-11T16:30:02.180Z,97
2018-07-11T16:35:02.133Z,96
2018-07-11T16:40:02.005Z,96
2018-07-11T16:45:02.159Z,96
2018-07-11T16:50:02.049Z,96
2018-07-11T16:55:02.024Z,96
2018-07-11T17:00:03.108Z,96
2018-07-11T17:05:02.273Z,96
2018-07-11T17:10:02.129Z,96
2018-07-11T17:15:02.335Z,96
2018-07-11T17:20:02.216Z,96
2018-07-11T17:25:02.793Z,96
2018-07-11T17:30:02.833Z,96
2018-07-11T17:35:02.831Z,96
2018-07-11T17:40:02.636Z,96
2018-07-11T17:45:02.460Z,96
2018-07-11T17:50:02.446Z,96
2018-07-11T17:55:02.228Z,96
2018-07-11T18:00:03.088Z,96
2018-07-11T18:05:03.048Z,96
2018-07-11T18:10:02.382Z,96
2018-07-11T18:15:02.823Z,96
2018-07-11T18:20:02.861Z,96
2018-07-11T18:25:02.651Z,96
2018-07-11T18:30:02.438Z,96
2018-07-11T18:35:02.426Z,96
2018-07-11T18:40:02.144Z,96
2018-07-11T18:45:03.020Z,96
2018-07-11T18:50:03.027Z,96
2018-07-11T18:55:02.811Z,96
2018-07-11T19:00:02.631Z,96
2018-07-11T19:05:02.979Z,96
2018-07-11T19:10:02.931Z,96
2018-07-11T19:15:02.596Z,96
2018-07-11T19:20:02.551Z,96
2018-07-11T19:25:02.370Z,96
2018-07-11T19:30:03.219Z,96
2018-07-11T19:35:02.837Z,96
2018-07-11T19:40:02.648Z,96
2018-07-11T19:45:02.472Z,96
2018-07-11T19:50:02.349Z,96
2018-07-11T19:55:02.251Z,96
2018-07-11T20:00:03.274Z,96
2018-07-11T20:05:03.008Z,96
2018-07-11T20:10:02.766Z,96
2018-07-11T20:15:02.744Z,96
2018-07-11T20:20:02.727Z,96
2018-07-11T20:25:02.563Z,96
2018-07-11T20:30:02.361Z,96
2018-07-11T20:35:02.531Z,96
2018-07-11T20:40:02.257Z,96
2018-07-11T20:45:03.162Z,96
2018-07-11T20:50:03.173Z,96
2018-07-11T20:55:03.072Z,96
2018-07-11T21:00:03.077Z,96
2018-07-11T21:05:02.337Z,96
2018-07-11T21:10:02.415Z,96
2018-07-11T21:15:02.309Z,96
2018-07-11T21:20:03.198Z,96
2018-07-11T21:25:02.673Z,96
2018-07-11T21:30:02.510Z,96
2018-07-11T21:35:02.631Z,96
2018-07-11T21:40:02.605Z,96
2018-07-11T21:45:02.312Z,96
2018-07-11T21:50:03.266Z,96
2018-07-11T21:55:03.040Z,96
2018-07-11T22:00:03.513Z,96
2018-07-11T22:05:02.578Z,96
2018-07-11T22:10:02.415Z,96
2018-07-11T22:15:02.659Z,96
2018-07-11T22:20:02.517Z,96
2018-07-11T22:25:02.345Z,96
2018-07-11T22:30:03.164Z,96
2018-07-11T22:35:03.057Z,96
2018-07-11T22:40:02.770Z,96
2018-07-11T22:45:02.948Z,96
2018-07-11T22:50:02.824Z,96
2018-07-11T22:55:02.583Z,96
2018-07-11T23:00:02.778Z,96
2018-07-11T23:05:02.693Z,97
2018-07-11T23:10:02.647Z,97
2018-07-11T23:15:02.762Z,97
2018-07-11T23:20:02.582Z,97
2018-07-11T23:25:02.547Z,97
2018-07-11T23:30:02.814Z,97
2018-07-11T23:35:02.959Z,97
2018-07-11T23:40:02.664Z,97
2018-07-11T23:45:03.382Z,97
2018-07-11T23:50:02.697Z,97
2018-07-11T23:55:02.829Z,97
